Youngstown, New York
Current Conditions -  °F | °C
As of 9:00 PM on Friday 28 Nov 2014 (Local Time) from CYSN Reporting Station
Scattered Clouds Scattered Clouds  
Wind Chill: 13°   Ceiling: Unl
Heat Index: 19°   Visibility: 15mi
Dew Point: 14°   Wind: 5mph
Humidity: 80%   Direction: 210°SSW
Pressure: 30.2"   Gusts: NA
Location:  43.25°N, 79.05°W
Report Text: CYSN 290200Z 21004KT 15SM FEW060 FEW100 SCT160 M07/M10 A3020 RMK SC1AC1AC2 LAST STFD OBS/NEXT 29 1200UTC SLP232
Loading
Personal Weather Stations






























Interactive Weather Map New forecast layout! Learn more

10-Day Weather Forecast

Advertisements
Track Severe Weather on mobile